sensor_id;sensor_type;location;lat;lon;timestamp;P1;durP1;ratioP1;P2;durP2;ratioP2
38859;SDS011;24609;48.316;16.174;2022-09-02T00:02:14;1.45;;;1.05;;
38859;SDS011;24609;48.316;16.174;2022-09-02T00:04:41;4.00;;;1.20;;
38859;SDS011;24609;48.316;16.174;2022-09-02T00:07:07;2.13;;;1.30;;
38859;SDS011;24609;48.316;16.174;2022-09-02T00:09:33;1.48;;;0.95;;
38859;SDS011;24609;48.316;16.174;2022-09-02T00:12:01;1.85;;;1.02;;
38859;SDS011;24609;48.316;16.174;2022-09-02T00:14:30;1.10;;;0.80;;
38859;SDS011;24609;48.316;16.174;2022-09-02T00:16:57;1.98;;;1.30;;
38859;SDS011;24609;48.316;16.174;2022-09-02T00:19:25;1.15;;;1.05;;
38859;SDS011;24609;48.316;16.174;2022-09-02T00:21:53;1.73;;;1.15;;
38859;SDS011;24609;48.316;16.174;2022-09-02T00:24:20;2.05;;;1.13;;
38859;SDS011;24609;48.316;16.174;2022-09-02T00:26:47;2.03;;;1.30;;
38859;SDS011;24609;48.316;16.174;2022-09-02T00:29:13;1.95;;;1.23;;
38859;SDS011;24609;48.316;16.174;2022-09-02T00:31:40;1.58;;;1.30;;
38859;SDS011;24609;48.316;16.174;2022-09-02T00:34:07;1.10;;;1.00;;
38859;SDS011;24609;48.316;16.174;2022-09-02T00:36:33;2.25;;;1.20;;
38859;SDS011;24609;48.316;16.174;2022-09-02T00:38:59;2.13;;;1.13;;
38859;SDS011;24609;48.316;16.174;2022-09-02T00:41:26;1.77;;;1.17;;
38859;SDS011;24609;48.316;16.174;2022-09-02T00:44:13;2.95;;;1.20;;
38859;SDS011;24609;48.316;16.174;2022-09-02T00:46:40;2.25;;;1.33;;
38859;SDS011;24609;48.316;16.174;2022-09-02T00:51:50;1.63;;;1.13;;
38859;SDS011;24609;48.316;16.174;2022-09-02T00:54:24;2.63;;;1.38;;
38859;SDS011;24609;48.316;16.174;2022-09-02T00:56:52;1.25;;;1.10;;
38859;SDS011;24609;48.316;16.174;2022-09-02T00:59:40;2.42;;;1.30;;
38859;SDS011;24609;48.316;16.174;2022-09-02T01:02:12;2.00;;;1.42;;
38859;SDS011;24609;48.316;16.174;2022-09-02T01:04:39;1.83;;;1.30;;
38859;SDS011;24609;48.316;16.174;2022-09-02T01:07:07;1.10;;;1.00;;
38859;SDS011;24609;48.316;16.174;2022-09-02T01:09:33;9.63;;;1.45;;
38859;SDS011;24609;48.316;16.174;2022-09-02T01:12:00;1.48;;;1.20;;
38859;SDS011;24609;48.316;16.174;2022-09-02T01:14:27;2.10;;;1.42;;
38859;SDS011;24609;48.316;16.174;2022-09-02T01:16:55;2.33;;;1.23;;
38859;SDS011;24609;48.316;16.174;2022-09-02T01:19:28;1.20;;;1.10;;
38859;SDS011;24609;48.316;16.174;2022-09-02T01:22:16;1.65;;;1.10;;
38859;SDS011;24609;48.316;16.174;2022-09-02T01:24:44;1.35;;;0.90;;
38859;SDS011;24609;48.316;16.174;2022-09-02T01:27:13;1.70;;;1.10;;
38859;SDS011;24609;48.316;16.174;2022-09-02T01:29:40;1.25;;;1.15;;
38859;SDS011;24609;48.316;16.174;2022-09-02T01:32:06;1.50;;;1.13;;
38859;SDS011;24609;48.316;16.174;2022-09-02T01:34:31;2.00;;;1.00;;
38859;SDS011;24609;48.316;16.174;2022-09-02T01:36:57;2.20;;;1.17;;
38859;SDS011;24609;48.316;16.174;2022-09-02T01:39:23;1.17;;;1.08;;
38859;SDS011;24609;48.316;16.174;2022-09-02T01:41:49;3.67;;;1.20;;
38859;SDS011;24609;48.316;16.174;2022-09-02T01:44:15;1.55;;;1.00;;
38859;SDS011;24609;48.316;16.174;2022-09-02T01:46:41;1.52;;;1.13;;
38859;SDS011;24609;48.316;16.174;2022-09-02T01:49:07;1.77;;;1.30;;
38859;SDS011;24609;48.316;16.174;2022-09-02T01:51:33;1.63;;;1.38;;
38859;SDS011;24609;48.316;16.174;2022-09-02T01:53:59;1.40;;;1.00;;
38859;SDS011;24609;48.316;16.174;2022-09-02T01:56:24;1.92;;;1.30;;
38859;SDS011;24609;48.316;16.174;2022-09-02T01:58:50;1.10;;;1.00;;
38859;SDS011;24609;48.316;16.174;2022-09-02T02:01:16;2.15;;;1.33;;
38859;SDS011;24609;48.316;16.174;2022-09-02T02:03:42;1.60;;;1.00;;
38859;SDS011;24609;48.316;16.174;2022-09-02T02:06:11;1.25;;;1.05;;
38859;SDS011;24609;48.316;16.174;2022-09-02T02:08:40;4.97;;;1.13;;
38859;SDS011;24609;48.316;16.174;2022-09-02T02:11:06;1.60;;;1.40;;
38859;SDS011;24609;48.316;16.174;2022-09-02T02:13:33;1.13;;;0.98;;
38859;SDS011;24609;48.316;16.174;2022-09-02T02:15:59;3.53;;;1.60;;
38859;SDS011;24609;48.316;16.174;2022-09-02T02:18:25;1.67;;;1.20;;
38859;SDS011;24609;48.316;16.174;2022-09-02T02:20:51;2.10;;;1.20;;
38859;SDS011;24609;48.316;16.174;2022-09-02T02:23:17;1.63;;;1.38;;
38859;SDS011;24609;48.316;16.174;2022-09-02T02:25:43;4.28;;;1.40;;
38859;SDS011;24609;48.316;16.174;2022-09-02T02:28:09;2.00;;;1.25;;
38859;SDS011;24609;48.316;16.174;2022-09-02T02:30:34;4.50;;;1.35;;
38859;SDS011;24609;48.316;16.174;2022-09-02T02:33:00;1.20;;;1.10;;
38859;SDS011;24609;48.316;16.174;2022-09-02T02:35:26;1.10;;;1.00;;
38859;SDS011;24609;48.316;16.174;2022-09-02T02:37:53;1.38;;;1.10;;
38859;SDS011;24609;48.316;16.174;2022-09-02T02:40:20;1.85;;;1.13;;
38859;SDS011;24609;48.316;16.174;2022-09-02T02:42:48;2.22;;;1.00;;
38859;SDS011;24609;48.316;16.174;2022-09-02T02:45:17;1.63;;;1.15;;
38859;SDS011;24609;48.316;16.174;2022-09-02T02:47:43;1.55;;;1.20;;
38859;SDS011;24609;48.316;16.174;2022-09-02T02:50:11;1.42;;;1.23;;
38859;SDS011;24609;48.316;16.174;2022-09-02T02:52:40;3.45;;;1.23;;
38859;SDS011;24609;48.316;16.174;2022-09-02T02:55:07;2.78;;;1.23;;
38859;SDS011;24609;48.316;16.174;2022-09-02T02:57:35;1.30;;;1.10;;
38859;SDS011;24609;48.316;16.174;2022-09-02T03:00:07;1.33;;;1.15;;
38859;SDS011;24609;48.316;16.174;2022-09-02T03:02:35;1.90;;;1.20;;
38859;SDS011;24609;48.316;16.174;2022-09-02T03:05:02;3.47;;;1.38;;
38859;SDS011;24609;48.316;16.174;2022-09-02T03:07:28;1.88;;;1.05;;
38859;SDS011;24609;48.316;16.174;2022-09-02T03:09:54;2.85;;;1.65;;
38859;SDS011;24609;48.316;16.174;2022-09-02T03:12:20;2.00;;;1.38;;
38859;SDS011;24609;48.316;16.174;2022-09-02T03:14:45;3.85;;;1.38;;
38859;SDS011;24609;48.316;16.174;2022-09-02T03:17:11;4.15;;;1.13;;
38859;SDS011;24609;48.316;16.174;2022-09-02T03:19:37;1.42;;;1.02;;
38859;SDS011;24609;48.316;16.174;2022-09-02T03:22:03;3.28;;;1.40;;
38859;SDS011;24609;48.316;16.174;2022-09-02T03:24:29;1.55;;;0.95;;
38859;SDS011;24609;48.316;16.174;2022-09-02T03:26:55;1.40;;;1.20;;
38859;SDS011;24609;48.316;16.174;2022-09-02T03:29:20;2.35;;;1.23;;
38859;SDS011;24609;48.316;16.174;2022-09-02T03:31:46;2.15;;;1.40;;
38859;SDS011;24609;48.316;16.174;2022-09-02T03:34:12;1.90;;;1.45;;
38859;SDS011;24609;48.316;16.174;2022-09-02T03:36:38;1.70;;;1.40;;
38859;SDS011;24609;48.316;16.174;2022-09-02T03:39:07;1.50;;;1.35;;
38859;SDS011;24609;48.316;16.174;2022-09-02T03:41:33;2.63;;;1.77;;
38859;SDS011;24609;48.316;16.174;2022-09-02T03:43:59;2.65;;;1.45;;
38859;SDS011;24609;48.316;16.174;2022-09-02T03:46:26;5.05;;;1.67;;
38859;SDS011;24609;48.316;16.174;2022-09-02T03:48:52;2.28;;;1.77;;
38859;SDS011;24609;48.316;16.174;2022-09-02T03:51:18;2.17;;;1.30;;
38859;SDS011;24609;48.316;16.174;2022-09-02T03:53:48;7.68;;;1.42;;
38859;SDS011;24609;48.316;16.174;2022-09-02T03:56:13;2.28;;;1.27;;
38859;SDS011;24609;48.316;16.174;2022-09-02T03:58:41;1.70;;;1.23;;
38859;SDS011;24609;48.316;16.174;2022-09-02T04:01:11;2.00;;;1.38;;
38859;SDS011;24609;48.316;16.174;2022-09-02T04:03:41;3.85;;;1.52;;
38859;SDS011;24609;48.316;16.174;2022-09-02T04:06:11;1.45;;;1.35;;
38859;SDS011;24609;48.316;16.174;2022-09-02T04:08:39;1.55;;;1.23;;
38859;SDS011;24609;48.316;16.174;2022-09-02T04:11:09;2.38;;;1.50;;
38859;SDS011;24609;48.316;16.174;2022-09-02T04:13:39;1.73;;;1.38;;
38859;SDS011;24609;48.316;16.174;2022-09-02T04:16:08;3.58;;;1.63;;
38859;SDS011;24609;48.316;16.174;2022-09-02T04:18:36;1.42;;;1.33;;
38859;SDS011;24609;48.316;16.174;2022-09-02T04:21:02;2.67;;;1.90;;
38859;SDS011;24609;48.316;16.174;2022-09-02T04:23:28;2.47;;;1.60;;
38859;SDS011;24609;48.316;16.174;2022-09-02T04:25:55;1.75;;;1.52;;
38859;SDS011;24609;48.316;16.174;2022-09-02T04:28:21;3.15;;;2.10;;
38859;SDS011;24609;48.316;16.174;2022-09-02T04:30:47;2.72;;;1.70;;
38859;SDS011;24609;48.316;16.174;2022-09-02T04:33:13;1.67;;;1.40;;
38859;SDS011;24609;48.316;16.174;2022-09-02T04:35:41;2.83;;;1.88;;
38859;SDS011;24609;48.316;16.174;2022-09-02T04:38:09;1.55;;;1.33;;
38859;SDS011;24609;48.316;16.174;2022-09-02T04:40:42;2.20;;;1.52;;
38859;SDS011;24609;48.316;16.174;2022-09-02T04:43:10;2.33;;;1.30;;
38859;SDS011;24609;48.316;16.174;2022-09-02T04:45:40;2.58;;;1.10;;
38859;SDS011;24609;48.316;16.174;2022-09-02T04:48:08;1.65;;;1.30;;
38859;SDS011;24609;48.316;16.174;2022-09-02T04:50:35;2.35;;;1.58;;
38859;SDS011;24609;48.316;16.174;2022-09-02T04:53:02;2.53;;;1.83;;
38859;SDS011;24609;48.316;16.174;2022-09-02T04:55:29;2.00;;;1.42;;
38859;SDS011;24609;48.316;16.174;2022-09-02T04:57:55;2.00;;;1.30;;
38859;SDS011;24609;48.316;16.174;2022-09-02T05:00:21;2.40;;;1.52;;
38859;SDS011;24609;48.316;16.174;2022-09-02T05:02:48;2.13;;;1.30;;
38859;SDS011;24609;48.316;16.174;2022-09-02T05:05:14;2.47;;;2.17;;
38859;SDS011;24609;48.316;16.174;2022-09-02T05:07:40;2.28;;;1.73;;
38859;SDS011;24609;48.316;16.174;2022-09-02T05:10:06;2.63;;;1.80;;
38859;SDS011;24609;48.316;16.174;2022-09-02T05:12:33;2.50;;;1.98;;
38859;SDS011;24609;48.316;16.174;2022-09-02T05:15:00;4.85;;;2.05;;
38859;SDS011;24609;48.316;16.174;2022-09-02T05:17:27;3.20;;;1.77;;
38859;SDS011;24609;48.316;16.174;2022-09-02T05:19:55;3.38;;;1.98;;
38859;SDS011;24609;48.316;16.174;2022-09-02T05:22:22;3.00;;;2.47;;
38859;SDS011;24609;48.316;16.174;2022-09-02T05:24:47;2.33;;;1.85;;
38859;SDS011;24609;48.316;16.174;2022-09-02T05:27:13;3.38;;;1.80;;
38859;SDS011;24609;48.316;16.174;2022-09-02T05:29:40;5.38;;;2.15;;
38859;SDS011;24609;48.316;16.174;2022-09-02T05:32:06;2.35;;;1.77;;
38859;SDS011;24609;48.316;16.174;2022-09-02T05:34:32;3.28;;;1.75;;
38859;SDS011;24609;48.316;16.174;2022-09-02T05:37:01;1.75;;;1.63;;
38859;SDS011;24609;48.316;16.174;2022-09-02T05:39:28;3.15;;;2.42;;
38859;SDS011;24609;48.316;16.174;2022-09-02T05:41:54;3.50;;;1.85;;
38859;SDS011;24609;48.316;16.174;2022-09-02T05:44:20;4.93;;;2.17;;
38859;SDS011;24609;48.316;16.174;2022-09-02T05:46:46;3.83;;;1.73;;
38859;SDS011;24609;48.316;16.174;2022-09-02T05:49:11;5.07;;;2.13;;
38859;SDS011;24609;48.316;16.174;2022-09-02T05:54:10;1.67;;;1.50;;
38859;SDS011;24609;48.316;16.174;2022-09-02T05:56:41;2.20;;;1.90;;
38859;SDS011;24609;48.316;16.174;2022-09-02T05:59:08;4.25;;;1.98;;
38859;SDS011;24609;48.316;16.174;2022-09-02T06:01:34;5.03;;;2.45;;
38859;SDS011;24609;48.316;16.174;2022-09-02T06:04:01;4.15;;;2.40;;
38859;SDS011;24609;48.316;16.174;2022-09-02T06:06:29;3.78;;;2.10;;
38859;SDS011;24609;48.316;16.174;2022-09-02T06:08:55;4.85;;;2.35;;
38859;SDS011;24609;48.316;16.174;2022-09-02T06:11:22;5.50;;;2.70;;
38859;SDS011;24609;48.316;16.174;2022-09-02T06:13:47;4.07;;;2.05;;
38859;SDS011;24609;48.316;16.174;2022-09-02T06:16:15;3.53;;;1.88;;
38859;SDS011;24609;48.316;16.174;2022-09-02T06:18:43;6.65;;;2.47;;
38859;SDS011;24609;48.316;16.174;2022-09-02T06:21:09;4.85;;;2.10;;
38859;SDS011;24609;48.316;16.174;2022-09-02T06:23:36;1.92;;;1.55;;
38859;SDS011;24609;48.316;16.174;2022-09-02T06:26:03;4.72;;;2.35;;
38859;SDS011;24609;48.316;16.174;2022-09-02T06:28:30;2.53;;;2.05;;
38859;SDS011;24609;48.316;16.174;2022-09-02T06:30:56;2.97;;;1.75;;
38859;SDS011;24609;48.316;16.174;2022-09-02T06:33:22;2.33;;;1.58;;
38859;SDS011;24609;48.316;16.174;2022-09-02T06:35:49;2.20;;;1.48;;
38859;SDS011;24609;48.316;16.174;2022-09-02T06:38:15;3.55;;;1.50;;
38859;SDS011;24609;48.316;16.174;2022-09-02T06:40:48;1.67;;;1.13;;
38859;SDS011;24609;48.316;16.174;2022-09-02T06:43:15;1.73;;;0.90;;
38859;SDS011;24609;48.316;16.174;2022-09-02T06:45:41;1.95;;;1.35;;
38859;SDS011;24609;48.316;16.174;2022-09-02T06:48:08;1.90;;;1.23;;
38859;SDS011;24609;48.316;16.174;2022-09-02T06:50:39;2.28;;;1.40;;
38859;SDS011;24609;48.316;16.174;2022-09-02T06:53:06;2.17;;;1.20;;
38859;SDS011;24609;48.316;16.174;2022-09-02T06:55:34;1.55;;;1.45;;
38859;SDS011;24609;48.316;16.174;2022-09-02T06:58:01;2.08;;;1.58;;
38859;SDS011;24609;48.316;16.174;2022-09-02T07:00:27;2.92;;;1.52;;
38859;SDS011;24609;48.316;16.174;2022-09-02T07:02:53;1.83;;;1.50;;
38859;SDS011;24609;48.316;16.174;2022-09-02T07:06:01;4.55;;;1.45;;
38859;SDS011;24609;48.316;16.174;2022-09-02T07:08:33;3.83;;;1.38;;
38859;SDS011;24609;48.316;16.174;2022-09-02T07:11:00;1.52;;;1.20;;
38859;SDS011;24609;48.316;16.174;2022-09-02T07:13:26;3.05;;;1.45;;
38859;SDS011;24609;48.316;16.174;2022-09-02T07:15:51;3.53;;;1.40;;
38859;SDS011;24609;48.316;16.174;2022-09-02T07:18:17;3.33;;;1.30;;
38859;SDS011;24609;48.316;16.174;2022-09-02T07:20:43;1.27;;;1.17;;
38859;SDS011;24609;48.316;16.174;2022-09-02T07:23:10;2.67;;;1.42;;
38859;SDS011;24609;48.316;16.174;2022-09-02T07:25:39;2.83;;;1.52;;
38859;SDS011;24609;48.316;16.174;2022-09-02T07:28:05;1.75;;;1.30;;
38859;SDS011;24609;48.316;16.174;2022-09-02T07:30:32;2.95;;;1.23;;
38859;SDS011;24609;48.316;16.174;2022-09-02T07:32:58;1.65;;;1.25;;
38859;SDS011;24609;48.316;16.174;2022-09-02T07:35:24;1.48;;;1.05;;
38859;SDS011;24609;48.316;16.174;2022-09-02T07:37:50;1.63;;;1.33;;
38859;SDS011;24609;48.316;16.174;2022-09-02T07:40:15;1.95;;;1.40;;
38859;SDS011;24609;48.316;16.174;2022-09-02T07:42:41;2.20;;;1.30;;
38859;SDS011;24609;48.316;16.174;2022-09-02T07:45:08;2.20;;;1.25;;
38859;SDS011;24609;48.316;16.174;2022-09-02T07:47:34;2.75;;;1.65;;
38859;SDS011;24609;48.316;16.174;2022-09-02T07:50:00;2.10;;;1.20;;
38859;SDS011;24609;48.316;16.174;2022-09-02T07:52:26;2.13;;;1.30;;
38859;SDS011;24609;48.316;16.174;2022-09-02T07:54:52;5.75;;;1.42;;
38859;SDS011;24609;48.316;16.174;2022-09-02T07:57:18;2.33;;;1.55;;
38859;SDS011;24609;48.316;16.174;2022-09-02T07:59:44;4.97;;;1.17;;
38859;SDS011;24609;48.316;16.174;2022-09-02T08:02:11;2.78;;;1.48;;
38859;SDS011;24609;48.316;16.174;2022-09-02T08:04:38;2.85;;;1.73;;
38859;SDS011;24609;48.316;16.174;2022-09-02T08:07:04;5.70;;;1.48;;
38859;SDS011;24609;48.316;16.174;2022-09-02T08:09:31;2.55;;;1.83;;
38859;SDS011;24609;48.316;16.174;2022-09-02T08:11:56;7.93;;;1.88;;
38859;SDS011;24609;48.316;16.174;2022-09-02T08:14:23;5.07;;;1.40;;
38859;SDS011;24609;48.316;16.174;2022-09-02T08:19:17;2.30;;;1.42;;
38859;SDS011;24609;48.316;16.174;2022-09-02T08:21:43;2.63;;;1.50;;
38859;SDS011;24609;48.316;16.174;2022-09-02T08:24:09;2.10;;;1.27;;
38859;SDS011;24609;48.316;16.174;2022-09-02T08:26:35;2.63;;;1.35;;
38859;SDS011;24609;48.316;16.174;2022-09-02T08:29:02;3.03;;;1.35;;
38859;SDS011;24609;48.316;16.174;2022-09-02T08:31:29;5.30;;;1.58;;
38859;SDS011;24609;48.316;16.174;2022-09-02T08:33:56;4.30;;;1.95;;
38859;SDS011;24609;48.316;16.174;2022-09-02T08:36:22;7.05;;;1.83;;
38859;SDS011;24609;48.316;16.174;2022-09-02T08:38:48;3.03;;;1.83;;
38859;SDS011;24609;48.316;16.174;2022-09-02T08:41:21;1.50;;;1.25;;
38859;SDS011;24609;48.316;16.174;2022-09-02T08:43:48;1.85;;;1.20;;
38859;SDS011;24609;48.316;16.174;2022-09-02T08:46:17;4.45;;;1.35;;
38859;SDS011;24609;48.316;16.174;2022-09-02T08:51:44;2.70;;;1.40;;
38859;SDS011;24609;48.316;16.174;2022-09-02T08:54:25;2.05;;;1.27;;
38859;SDS011;24609;48.316;16.174;2022-09-02T08:56:56;2.40;;;1.10;;
38859;SDS011;24609;48.316;16.174;2022-09-02T08:59:23;3.17;;;1.42;;
38859;SDS011;24609;48.316;16.174;2022-09-02T09:18:17;3.45;;;1.55;;
38859;SDS011;24609;48.316;16.174;2022-09-02T09:20:49;1.52;;;1.10;;
38859;SDS011;24609;48.316;16.174;2022-09-02T09:25:41;3.28;;;1.33;;
38859;SDS011;24609;48.316;16.174;2022-09-02T09:28:08;4.15;;;1.27;;
38859;SDS011;24609;48.316;16.174;2022-09-02T09:30:34;1.52;;;1.02;;
38859;SDS011;24609;48.316;16.174;2022-09-02T09:33:00;1.13;;;1.00;;
38859;SDS011;24609;48.316;16.174;2022-09-02T09:35:26;2.03;;;1.00;;
38859;SDS011;24609;48.316;16.174;2022-09-02T09:38:11;2.83;;;1.40;;
38859;SDS011;24609;48.316;16.174;2022-09-02T09:40:37;2.13;;;1.10;;
38859;SDS011;24609;48.316;16.174;2022-09-02T09:50:47;3.83;;;1.00;;
38859;SDS011;24609;48.316;16.174;2022-09-02T09:53:34;3.47;;;1.05;;
38859;SDS011;24609;48.316;16.174;2022-09-02T09:56:05;1.27;;;0.97;;
38859;SDS011;24609;48.316;16.174;2022-09-02T09:58:47;2.67;;;1.17;;
38859;SDS011;24609;48.316;16.174;2022-09-02T10:01:17;5.75;;;1.40;;
38859;SDS011;24609;48.316;16.174;2022-09-02T10:03:49;2.28;;;1.13;;
38859;SDS011;24609;48.316;16.174;2022-09-02T10:06:21;1.67;;;1.10;;
38859;SDS011;24609;48.316;16.174;2022-09-02T10:08:53;3.22;;;1.70;;
38859;SDS011;24609;48.316;16.174;2022-09-02T10:11:30;2.75;;;1.25;;
38859;SDS011;24609;48.316;16.174;2022-09-02T10:14:04;1.50;;;1.10;;
38859;SDS011;24609;48.316;16.174;2022-09-02T10:20:00;1.45;;;0.90;;
38859;SDS011;24609;48.316;16.174;2022-09-02T10:31:19;1.60;;;1.10;;
38859;SDS011;24609;48.316;16.174;2022-09-02T10:37:07;3.75;;;1.10;;
38859;SDS011;24609;48.316;16.174;2022-09-02T10:51:14;1.77;;;1.00;;
38859;SDS011;24609;48.316;16.174;2022-09-02T11:01:20;1.65;;;1.05;;
38859;SDS011;24609;48.316;16.174;2022-09-02T11:06:37;2.17;;;1.20;;
38859;SDS011;24609;48.316;16.174;2022-09-02T11:09:08;3.10;;;1.10;;
38859;SDS011;24609;48.316;16.174;2022-09-02T11:11:58;1.58;;;0.98;;
38859;SDS011;24609;48.316;16.174;2022-09-02T11:23:12;2.35;;;0.85;;
38859;SDS011;24609;48.316;16.174;2022-09-02T11:37:07;1.42;;;1.00;;
38859;SDS011;24609;48.316;16.174;2022-09-02T11:39:37;1.23;;;0.80;;
38859;SDS011;24609;48.316;16.174;2022-09-02T11:53:39;2.17;;;0.88;;
38859;SDS011;24609;48.316;16.174;2022-09-02T11:59:05;1.33;;;0.90;;
38859;SDS011;24609;48.316;16.174;2022-09-02T12:01:25;0.90;;;0.75;;
38859;SDS011;24609;48.316;16.174;2022-09-02T12:04:40;1.73;;;0.90;;
38859;SDS011;24609;48.316;16.174;2022-09-02T12:09:44;2.08;;;1.00;;
38859;SDS011;24609;48.316;16.174;2022-09-02T12:17:36;1.65;;;0.95;;
38859;SDS011;24609;48.316;16.174;2022-09-02T12:26:12;1.23;;;1.00;;
38859;SDS011;24609;48.316;16.174;2022-09-02T12:28:39;2.72;;;0.90;;
38859;SDS011;24609;48.316;16.174;2022-09-02T12:31:08;1.42;;;0.80;;
38859;SDS011;24609;48.316;16.174;2022-09-02T12:33:42;2.03;;;0.90;;
38859;SDS011;24609;48.316;16.174;2022-09-02T12:50:09;1.83;;;1.20;;
38859;SDS011;24609;48.316;16.174;2022-09-02T12:52:48;1.65;;;1.00;;
38859;SDS011;24609;48.316;16.174;2022-09-02T12:58:11;1.00;;;0.80;;
38859;SDS011;24609;48.316;16.174;2022-09-02T13:03:23;1.40;;;0.82;;
38859;SDS011;24609;48.316;16.174;2022-09-02T13:06:07;2.10;;;0.82;;
38859;SDS011;24609;48.316;16.174;2022-09-02T13:11:30;0.73;;;0.70;;
38859;SDS011;24609;48.316;16.174;2022-09-02T13:14:40;1.23;;;0.75;;
38859;SDS011;24609;48.316;16.174;2022-09-02T13:33:25;1.70;;;0.85;;
38859;SDS011;24609;48.316;16.174;2022-09-02T13:35:55;2.00;;;1.10;;
38859;SDS011;24609;48.316;16.174;2022-09-02T13:38:25;1.50;;;0.80;;
38859;SDS011;24609;48.316;16.174;2022-09-02T13:40:53;2.03;;;1.02;;
38859;SDS011;24609;48.316;16.174;2022-09-02T13:43:20;2.30;;;0.68;;
38859;SDS011;24609;48.316;16.174;2022-09-02T13:45:48;1.63;;;0.80;;
38859;SDS011;24609;48.316;16.174;2022-09-02T13:48:16;1.20;;;0.80;;
38859;SDS011;24609;48.316;16.174;2022-09-02T13:50:45;4.07;;;0.90;;
38859;SDS011;24609;48.316;16.174;2022-09-02T13:55:50;1.17;;;1.00;;
38859;SDS011;24609;48.316;16.174;2022-09-02T13:58:41;2.47;;;1.00;;
38859;SDS011;24609;48.316;16.174;2022-09-02T14:03:47;0.93;;;0.80;;
38859;SDS011;24609;48.316;16.174;2022-09-02T14:06:16;3.45;;;1.30;;
38859;SDS011;24609;48.316;16.174;2022-09-02T14:08:46;1.25;;;0.90;;
38859;SDS011;24609;48.316;16.174;2022-09-02T14:11:14;1.25;;;0.88;;
38859;SDS011;24609;48.316;16.174;2022-09-02T14:13:42;1.15;;;0.90;;
38859;SDS011;24609;48.316;16.174;2022-09-02T14:16:25;2.70;;;1.30;;
38859;SDS011;24609;48.316;16.174;2022-09-02T14:19:07;2.15;;;0.90;;
38859;SDS011;24609;48.316;16.174;2022-09-02T14:21:48;1.60;;;0.70;;
38859;SDS011;24609;48.316;16.174;2022-09-02T14:24:19;1.23;;;0.75;;
38859;SDS011;24609;48.316;16.174;2022-09-02T14:26:50;0.98;;;0.70;;
38859;SDS011;24609;48.316;16.174;2022-09-02T14:29:21;1.98;;;0.90;;
38859;SDS011;24609;48.316;16.174;2022-09-02T14:34:40;1.23;;;1.00;;
38859;SDS011;24609;48.316;16.174;2022-09-02T14:37:17;1.00;;;0.85;;
38859;SDS011;24609;48.316;16.174;2022-09-02T14:40:29;1.00;;;0.85;;
38859;SDS011;24609;48.316;16.174;2022-09-02T14:42:43;1.83;;;0.90;;
38859;SDS011;24609;48.316;16.174;2022-09-02T14:45:10;1.05;;;0.88;;
38859;SDS011;24609;48.316;16.174;2022-09-02T14:47:37;1.85;;;1.00;;
38859;SDS011;24609;48.316;16.174;2022-09-02T14:50:04;2.08;;;1.00;;
38859;SDS011;24609;48.316;16.174;2022-09-02T14:52:43;3.45;;;0.90;;
38859;SDS011;24609;48.316;16.174;2022-09-02T14:58:19;1.20;;;0.88;;
38859;SDS011;24609;48.316;16.174;2022-09-02T15:00:47;1.40;;;0.80;;
38859;SDS011;24609;48.316;16.174;2022-09-02T15:03:19;1.35;;;1.00;;
38859;SDS011;24609;48.316;16.174;2022-09-02T15:05:46;2.10;;;0.82;;
38859;SDS011;24609;48.316;16.174;2022-09-02T15:08:13;2.20;;;1.20;;
38859;SDS011;24609;48.316;16.174;2022-09-02T15:10:40;1.67;;;0.70;;
38859;SDS011;24609;48.316;16.174;2022-09-02T15:13:30;3.28;;;1.08;;
38859;SDS011;24609;48.316;16.174;2022-09-02T15:15:56;2.60;;;1.00;;
38859;SDS011;24609;48.316;16.174;2022-09-02T15:18:23;1.20;;;0.90;;
38859;SDS011;24609;48.316;16.174;2022-09-02T15:20:49;1.88;;;1.00;;
38859;SDS011;24609;48.316;16.174;2022-09-02T15:23:15;1.65;;;0.95;;
38859;SDS011;24609;48.316;16.174;2022-09-02T15:25:41;1.20;;;0.90;;
38859;SDS011;24609;48.316;16.174;2022-09-02T15:28:07;3.05;;;0.77;;
38859;SDS011;24609;48.316;16.174;2022-09-02T15:30:33;2.30;;;0.90;;
38859;SDS011;24609;48.316;16.174;2022-09-02T15:33:03;1.65;;;0.93;;
38859;SDS011;24609;48.316;16.174;2022-09-02T15:35:33;2.95;;;0.88;;
38859;SDS011;24609;48.316;16.174;2022-09-02T15:37:59;1.23;;;1.10;;
38859;SDS011;24609;48.316;16.174;2022-09-02T15:40:29;1.30;;;1.05;;
38859;SDS011;24609;48.316;16.174;2022-09-02T15:42:58;1.02;;;0.70;;
38859;SDS011;24609;48.316;16.174;2022-09-02T15:45:24;2.42;;;1.30;;
38859;SDS011;24609;48.316;16.174;2022-09-02T15:47:51;1.48;;;0.90;;
38859;SDS011;24609;48.316;16.174;2022-09-02T15:50:17;1.23;;;0.70;;
38859;SDS011;24609;48.316;16.174;2022-09-02T15:52:43;1.73;;;1.00;;
38859;SDS011;24609;48.316;16.174;2022-09-02T15:55:10;1.10;;;0.80;;
38859;SDS011;24609;48.316;16.174;2022-09-02T15:57:36;2.53;;;0.85;;
38859;SDS011;24609;48.316;16.174;2022-09-02T16:00:02;2.67;;;1.10;;
38859;SDS011;24609;48.316;16.174;2022-09-02T16:02:28;1.13;;;0.70;;
38859;SDS011;24609;48.316;16.174;2022-09-02T16:04:53;2.45;;;1.00;;
38859;SDS011;24609;48.316;16.174;2022-09-02T16:07:20;3.38;;;1.15;;
38859;SDS011;24609;48.316;16.174;2022-09-02T16:09:45;8.38;;;1.70;;
38859;SDS011;24609;48.316;16.174;2022-09-02T16:12:11;5.03;;;1.63;;
38859;SDS011;24609;48.316;16.174;2022-09-02T16:14:37;1.70;;;0.95;;
38859;SDS011;24609;48.316;16.174;2022-09-02T16:17:03;2.97;;;1.15;;
38859;SDS011;24609;48.316;16.174;2022-09-02T16:19:29;1.58;;;1.08;;
38859;SDS011;24609;48.316;16.174;2022-09-02T16:21:54;1.38;;;0.82;;
38859;SDS011;24609;48.316;16.174;2022-09-02T16:24:20;1.05;;;0.77;;
38859;SDS011;24609;48.316;16.174;2022-09-02T16:26:47;2.58;;;0.73;;
38859;SDS011;24609;48.316;16.174;2022-09-02T16:29:14;1.35;;;0.90;;
38859;SDS011;24609;48.316;16.174;2022-09-02T16:31:42;2.55;;;0.90;;
38859;SDS011;24609;48.316;16.174;2022-09-02T16:34:12;1.08;;;0.80;;
38859;SDS011;24609;48.316;16.174;2022-09-02T16:36:41;1.00;;;0.90;;
38859;SDS011;24609;48.316;16.174;2022-09-02T16:39:08;2.80;;;1.00;;
38859;SDS011;24609;48.316;16.174;2022-09-02T16:41:40;1.25;;;0.80;;
38859;SDS011;24609;48.316;16.174;2022-09-02T16:44:12;1.45;;;1.00;;
38859;SDS011;24609;48.316;16.174;2022-09-02T16:46:42;0.80;;;0.80;;
38859;SDS011;24609;48.316;16.174;2022-09-02T16:49:09;1.30;;;0.95;;
38859;SDS011;24609;48.316;16.174;2022-09-02T16:51:37;1.35;;;0.88;;
38859;SDS011;24609;48.316;16.174;2022-09-02T16:54:05;0.70;;;0.70;;
38859;SDS011;24609;48.316;16.174;2022-09-02T16:56:32;1.20;;;0.75;;
38859;SDS011;24609;48.316;16.174;2022-09-02T16:59:00;2.95;;;0.82;;
38859;SDS011;24609;48.316;16.174;2022-09-02T17:01:27;1.80;;;0.95;;
38859;SDS011;24609;48.316;16.174;2022-09-02T17:03:53;1.48;;;0.80;;
38859;SDS011;24609;48.316;16.174;2022-09-02T17:06:19;1.48;;;1.00;;
38859;SDS011;24609;48.316;16.174;2022-09-02T17:08:45;1.98;;;1.10;;
38859;SDS011;24609;48.316;16.174;2022-09-02T17:16:23;3.40;;;0.80;;
38859;SDS011;24609;48.316;16.174;2022-09-02T17:18:50;1.10;;;0.95;;
38859;SDS011;24609;48.316;16.174;2022-09-02T17:21:32;1.17;;;0.88;;
38859;SDS011;24609;48.316;16.174;2022-09-02T17:24:01;1.40;;;1.08;;
38859;SDS011;24609;48.316;16.174;2022-09-02T17:26:29;1.25;;;1.02;;
38859;SDS011;24609;48.316;16.174;2022-09-02T17:28:57;1.52;;;1.00;;
38859;SDS011;24609;48.316;16.174;2022-09-02T17:31:27;2.25;;;0.88;;
38859;SDS011;24609;48.316;16.174;2022-09-02T17:33:56;3.17;;;1.05;;
38859;SDS011;24609;48.316;16.174;2022-09-02T17:36:24;2.15;;;1.00;;
38859;SDS011;24609;48.316;16.174;2022-09-02T17:38:56;1.92;;;1.08;;
38859;SDS011;24609;48.316;16.174;2022-09-02T17:41:26;2.25;;;1.23;;